createdAt,value
2024-01-10T00:00:19.072Z,36.715309
2024-01-10T00:06:05.242Z,36.814079
2024-01-10T00:10:19.035Z,36.912849
2024-01-10T00:15:19.081Z,37.390905
2024-01-10T00:21:02.525Z,37.588698
2024-01-10T00:25:17.326Z,37.687595
2024-01-10T00:30:19.321Z,37.885387
2024-01-10T00:35:19.182Z,37.984283
2024-01-10T00:40:19.024Z,37.984283
2024-01-10T00:46:02.620Z,38.182073
2024-01-10T00:50:17.113Z,38.182073
2024-01-10T00:55:19.363Z,38.280968
2024-01-10T01:00:17.071Z,38.379863
2024-01-10T01:05:19.207Z,38.478757
2024-01-10T01:11:02.661Z,38.577652
2024-01-10T01:15:17.348Z,38.676546
2024-01-10T01:20:26.568Z,39.055028
2024-01-10T01:25:17.539Z,39.055028
2024-01-10T01:30:19.306Z,39.154048
2024-01-10T01:35:17.663Z,39.154048
2024-01-10T01:41:02.636Z,39.253069
2024-01-10T01:45:19.431Z,39.253069
2024-01-10T01:51:02.949Z,39.352089
2024-01-10T01:56:02.905Z,39.728534
2024-01-10T02:01:02.601Z,39.827680
2024-01-10T02:05:25.649Z,39.649149
2024-01-10T02:10:17.656Z,40.125117
2024-01-10T02:15:19.116Z,40.224262
2024-01-10T02:20:20.081Z,40.422552
2024-01-10T02:26:02.684Z,40.521697
2024-01-10T02:30:19.457Z,40.521697
2024-01-10T02:36:02.574Z,40.719986
2024-01-10T02:40:20.382Z,40.441298
2024-01-10T02:45:19.407Z,40.540315
2024-01-10T02:50:25.760Z,40.639333
2024-01-10T02:56:02.685Z,40.738350
2024-01-10T03:01:02.756Z,40.738350
2024-01-10T03:05:19.123Z,40.738350
2024-01-10T03:11:02.818Z,40.837367
2024-01-10T03:15:17.371Z,40.837367
2024-01-10T03:20:25.533Z,40.837367
2024-01-10T03:25:19.172Z,40.738350
2024-01-10T03:31:02.650Z,40.738350
2024-01-10T03:35:17.399Z,40.639333
2024-01-10T03:40:19.184Z,40.639333
2024-01-10T03:45:22.186Z,40.738350
2024-01-10T03:50:19.307Z,40.738350
2024-01-10T03:56:02.664Z,40.738350
2024-01-10T04:00:17.357Z,41.017418
2024-01-10T04:05:19.258Z,41.116562
2024-01-10T04:11:02.681Z,41.215705
2024-01-10T04:15:19.121Z,41.314848
2024-01-10T04:20:17.398Z,41.413991
2024-01-10T04:26:02.739Z,41.513134
2024-01-10T04:30:19.212Z,41.513134
2024-01-10T04:36:02.760Z,41.711419
2024-01-10T04:40:19.207Z,41.711419
2024-01-10T04:45:19.254Z,41.810562
2024-01-10T04:50:19.254Z,41.909704
2024-01-10T04:56:02.690Z,42.008845
2024-01-10T05:00:16.743Z,42.385804
2024-01-10T05:05:18.543Z,42.584338
2024-01-10T05:10:18.446Z,42.504552
2024-01-10T05:15:18.419Z,42.882139
2024-01-10T05:20:18.485Z,43.080672
2024-01-10T05:26:01.992Z,43.378470
2024-01-10T05:31:08.756Z,43.378470
2024-01-10T05:35:18.515Z,43.775531
2024-01-10T05:41:01.924Z,43.974061
2024-01-10T05:45:18.460Z,43.991642
2024-01-10T05:50:18.731Z,44.371119
2024-01-10T05:56:01.997Z,44.470383
2024-01-10T06:00:24.809Z,44.668910
2024-01-10T06:05:18.469Z,44.867437
2024-01-10T06:10:18.526Z,44.966700
2024-01-10T06:16:02.089Z,45.065963
2024-01-10T06:20:24.755Z,45.264489
2024-01-10T06:25:16.701Z,45.264489
2024-01-10T06:31:02.030Z,45.363751
2024-01-10T06:36:02.014Z,45.562276
2024-01-10T06:40:55.786Z,45.760799
2024-01-10T06:45:16.660Z,45.959323
2024-01-10T06:50:18.528Z,46.157845
2024-01-10T06:56:02.086Z,46.636602
2024-01-10T07:00:18.435Z,46.735989
2024-01-10T07:05:16.758Z,46.654149
2024-01-10T07:11:02.063Z,46.753409
2024-01-10T07:16:02.003Z,46.951929
2024-01-10T07:20:18.524Z,47.051188
2024-01-10T07:25:18.542Z,47.332305
2024-01-10T07:30:24.802Z,47.630462
2024-01-10T07:35:16.783Z,47.729847
2024-01-10T07:40:16.679Z,47.829232
2024-01-10T07:46:02.034Z,47.928617
2024-01-10T07:50:18.640Z,48.127386
2024-01-10T07:55:24.848Z,48.226771
2024-01-10T08:00:18.563Z,48.723691
2024-01-10T08:05:16.784Z,49.501512
2024-01-10T08:11:01.997Z,50.297576
2024-01-10T08:15:16.726Z,50.795113
2024-01-10T08:20:18.677Z,51.292647
2024-01-10T08:25:16.603Z,51.690673
2024-01-10T08:30:18.599Z,51.989190
2024-01-10T08:35:27.671Z,52.287707
2024-01-10T08:40:18.676Z,51.903899
2024-01-10T08:45:18.501Z,51.219946
2024-01-10T08:51:02.068Z,50.822934
2024-01-10T08:55:16.712Z,50.525173
2024-01-10T09:00:16.576Z,50.128156
2024-01-10T09:05:18.683Z,49.433371
2024-01-10T09:10:16.712Z,49.036347
2024-01-10T09:15:18.525Z,48.837834
2024-01-10T09:20:25.047Z,49.121225
2024-01-10T09:25:18.669Z,49.021841
2024-01-10T09:31:02.104Z,49.021841
2024-01-10T09:35:18.559Z,49.501512
2024-01-10T09:40:18.681Z,49.700529
2024-01-10T09:45:16.491Z,49.899545
2024-01-10T09:51:02.006Z,50.695606
2024-01-10T09:56:02.052Z,51.093634
2024-01-10T10:00:16.761Z,51.573234
2024-01-10T10:05:18.736Z,51.772496
2024-01-10T10:10:18.673Z,51.591166
2024-01-10T10:15:18.581Z,51.491660
2024-01-10T10:20:16.955Z,51.690673
2024-01-10T10:25:16.796Z,51.889685
2024-01-10T10:30:18.643Z,51.989190
2024-01-10T10:36:02.064Z,52.088696
2024-01-10T10:40:17.543Z,52.088696
2024-01-10T10:45:18.606Z,52.088696
2024-01-10T10:50:18.600Z,52.088696
2024-01-10T10:55:18.607Z,52.287707
2024-01-10T11:00:16.767Z,52.486718
2024-01-10T11:06:02.183Z,52.685728
2024-01-10T11:11:02.128Z,52.785233
2024-01-10T11:15:16.773Z,52.984243
2024-01-10T11:20:24.917Z,53.183252
2024-01-10T11:25:16.961Z,53.382260
2024-01-10T11:30:19.676Z,53.680773
2024-01-10T11:36:02.281Z,53.979284
2024-01-10T11:40:16.815Z,54.178291
2024-01-10T11:45:16.802Z,54.377297
2024-01-10T11:50:18.650Z,54.476800
2024-01-10T11:55:18.639Z,54.388339
2024-01-10T12:01:02.115Z,54.388339
2024-01-10T12:05:18.744Z,54.388339
2024-01-10T12:10:18.614Z,54.388339
2024-01-10T12:15:18.593Z,54.388339
2024-01-10T12:20:18.617Z,54.388339
2024-01-10T12:26:02.225Z,54.388339
2024-01-10T12:31:02.090Z,54.288963
2024-01-10T12:36:02.137Z,54.189587
2024-01-10T12:41:02.072Z,54.189587
2024-01-10T12:45:24.887Z,53.800458
2024-01-10T12:50:16.923Z,53.701210
2024-01-10T12:56:02.174Z,53.601961
2024-01-10T13:00:16.832Z,53.502713
2024-01-10T13:05:17.024Z,53.502713
2024-01-10T13:11:02.134Z,53.502713
2024-01-10T13:15:24.944Z,53.601961
2024-01-10T13:20:19.023Z,53.601961
2024-01-10T13:26:02.186Z,53.701210
2024-01-10T13:31:02.414Z,53.800458
2024-01-10T13:36:02.136Z,53.800458
2024-01-10T13:40:16.747Z,53.607105
2024-01-10T13:45:18.677Z,53.607105
2024-01-10T13:50:16.945Z,53.706224
2024-01-10T13:55:16.865Z,53.706224
2024-01-10T14:00:18.691Z,53.509704
2024-01-10T14:05:18.750Z,53.608692
2024-01-10T14:10:18.633Z,53.112371
2024-01-10T14:16:02.252Z,51.904361
2024-01-10T14:20:18.665Z,50.671062
2024-01-10T14:25:18.700Z,49.862414
2024-01-10T14:31:09.983Z,48.922582
2024-01-10T14:35:17.210Z,48.399350
2024-01-10T14:40:18.680Z,48.204385
2024-01-10T14:45:18.797Z,47.343796
2024-01-10T14:51:04.808Z,47.483758
2024-01-10T14:56:02.233Z,47.619475
2024-01-10T15:00:18.671Z,47.521988
2024-01-10T15:05:18.820Z,46.997049
2024-01-10T15:10:18.713Z,46.566238
2024-01-10T15:16:02.195Z,46.371843
2024-01-10T15:20:18.692Z,46.177445
2024-01-10T15:25:18.703Z,45.646728
2024-01-10T15:30:18.912Z,45.885843
2024-01-10T15:36:02.189Z,45.885843
2024-01-10T15:41:02.240Z,45.788642
2024-01-10T15:45:16.908Z,46.218286
2024-01-10T15:50:18.747Z,46.080245
2024-01-10T15:56:02.177Z,45.937884
2024-01-10T16:00:16.937Z,46.131985
2024-01-10T16:05:18.851Z,46.081800
2024-01-10T16:10:17.157Z,45.930036
2024-01-10T16:16:02.225Z,45.419610
2024-01-10T16:20:18.837Z,45.061348
2024-01-10T16:25:17.033Z,44.965068
2024-01-10T16:30:18.819Z,44.965068
2024-01-10T16:35:18.929Z,44.965068
2024-01-10T16:40:25.075Z,44.235703
2024-01-10T16:45:18.747Z,44.139741
2024-01-10T16:50:18.892Z,44.139741
2024-01-10T16:56:02.309Z,44.043778
2024-01-10T17:00:18.728Z,44.410371
2024-01-10T17:06:02.420Z,44.139741
2024-01-10T17:11:02.245Z,43.768409
2024-01-10T17:15:16.735Z,43.864209
2024-01-10T17:21:02.225Z,43.106976
2024-01-10T17:25:18.791Z,42.816274
2024-01-10T17:31:02.301Z,42.329857
2024-01-10T17:35:18.924Z,42.329857
2024-01-10T17:40:18.773Z,42.625669
2024-01-10T17:46:02.207Z,43.296736
2024-01-10T17:51:02.248Z,43.481002
2024-01-10T17:55:18.727Z,42.914177
2024-01-10T18:01:02.300Z,42.914177
2024-01-10T18:05:18.931Z,43.193588
2024-01-10T18:10:18.770Z,42.343183
2024-01-10T18:16:02.292Z,41.767897
2024-01-10T18:20:18.767Z,41.481955
2024-01-10T18:25:25.077Z,39.920170
2024-01-10T18:30:18.840Z,39.256505
2024-01-10T18:35:16.991Z,38.877244
2024-01-10T18:40:18.921Z,38.877244
2024-01-10T18:46:02.306Z,38.474812
2024-01-10T18:50:16.889Z,38.877244
2024-01-10T18:55:20.587Z,38.877244
2024-01-10T19:01:02.401Z,38.687607
2024-01-10T19:05:19.149Z,38.687607
2024-01-10T19:10:18.826Z,38.894195
2024-01-10T19:15:17.042Z,38.894195
2024-01-10T19:21:02.329Z,38.894195
2024-01-10T19:25:18.839Z,38.894195
2024-01-10T19:30:18.870Z,38.592787
2024-01-10T19:36:02.277Z,38.687607
2024-01-10T19:40:17.022Z,38.285526
2024-01-10T19:46:02.301Z,38.380169
2024-01-10T19:51:02.466Z,37.972238
2024-01-10T19:55:18.802Z,38.066703
2024-01-10T20:00:18.877Z,37.841309
2024-01-10T20:05:19.022Z,37.747026
2024-01-10T20:10:25.172Z,37.232749
2024-01-10T20:15:17.028Z,37.138646
2024-01-10T20:20:18.950Z,37.138646
2024-01-10T20:26:02.416Z,37.044543
2024-01-10T20:30:18.863Z,36.186423
2024-01-10T20:35:18.832Z,35.653978
2024-01-10T20:40:25.126Z,35.208414
2024-01-10T20:45:18.871Z,35.301763
2024-01-10T20:51:02.358Z,35.208414
2024-01-10T20:55:18.828Z,34.755766
2024-01-10T21:01:02.495Z,34.295788
2024-01-10T21:05:18.961Z,33.167693
2024-01-10T21:11:02.361Z,32.592187
2024-01-10T21:15:18.860Z,32.008654
2024-01-10T21:20:19.048Z,31.324861
2024-01-10T21:25:17.045Z,30.724537
2024-01-10T21:30:19.004Z,30.541123
2024-01-10T21:35:17.179Z,30.957160
2024-01-10T21:40:17.031Z,30.174276
2024-01-10T21:45:17.065Z,30.082559
2024-01-10T21:50:17.082Z,29.899122
2024-01-10T21:56:02.382Z,30.221675
2024-01-10T22:00:18.877Z,30.129732
2024-01-10T22:05:17.191Z,30.442141
2024-01-10T22:10:17.024Z,30.349978
2024-01-10T22:15:18.897Z,30.257814
2024-01-10T22:20:25.194Z,30.073480
2024-01-10T22:25:18.911Z,30.560233
2024-01-10T22:30:18.936Z,30.560233
2024-01-10T22:36:02.413Z,30.467852
2024-01-10T22:41:02.411Z,30.375470
2024-01-10T22:45:17.119Z,30.853438
2024-01-10T22:50:19.022Z,30.375470
2024-01-10T22:55:18.967Z,30.283087
2024-01-10T23:01:02.438Z,30.283087
2024-01-10T23:05:25.460Z,30.283087
2024-01-10T23:10:19.007Z,30.283087
2024-01-10T23:16:02.333Z,30.283087
2024-01-10T23:21:02.407Z,30.760847
2024-01-10T23:25:17.118Z,30.760847
2024-01-10T23:30:18.994Z,30.668255
2024-01-10T23:35:20.428Z,30.575661
2024-01-10T23:41:02.440Z,30.483066
2024-01-10T23:45:18.986Z,30.859354
2024-01-10T23:50:18.993Z,30.766552
2024-01-10T23:56:02.423Z,30.673748
